Callender, IA

6:34 AM CDT on April 26, 2015 (GMT -0500)
Boone Municipal | | Change Station
CLOSE
Current Station
Airport
Location: Boone,
Elevation: 1161 ft
Nearby Weather Stations

Elev 1161 ft 42.05 °N, 93.85 °W | Updated 19 minutes ago

Clear
Clear
37 °F
Feels Like 31 °F
N
8
Wind Variable Wind from NNE

Today
High -- | Low -- °F
--% Chance of Precip.
Yesterday
High -- | Low -- °F
Precip. -- in
6:19 AM 8:10 PM
First Quarter, 55% visible
Pressure 29.99 in
Visibility 9.0 miles
Clouds Clear
Windchill 31 °F
Dew Point 37 °F
Humidity 100%
Rainfall 0.00 in
Snow Depth Not available.
UV 0 out of 12
Pollen 10.90 out of 12
Air Quality Not available.
Flu Activity Local Activity
METAR KBNW 261115Z AUTO 03007KT 9SM CLR 03/03 A2999 RMK AO2

More Conditions Fewer Conditions

Pressure 29.99 in
Visibility 9.0 miles
Clouds Clear
Windchill 31 °F
Dew Point 37 °F
Humidity 100%
Rainfall 0.00 in
Snow Depth Not available.
UV 0 out of 12
Pollen 10.90 out of 12
Air Quality Not available.
Flu Activity Local Activity
METAR KBNW 261115Z AUTO 03007KT 9SM CLR 03/03 A2999 RMK AO2

More Conditions Fewer Conditions

The full scope of the disaster following a powerful 7.8-magnitude earthquake in Nepal may not come into view for days, but global charities are already sending emergency aid. Click to see how you can help.

10-Day Weather Forecast

Almanac

Astronomy

Apr. 26, 2015 Rise Set
Actual Time
Civil Twilight
Nautical Twilight
Astronomical Twilight
Moon
Length of Visible Light
Length of Day
Tomorrow will be .
, % of the Moon is Illuminated

Today's Extremes

State Highs State Lows

Community

WunderPhotos

Upload Photos

1,816,964 photos uploaded!

WunderBlogs® & News

Nearby

Air Quality

  Air Quality AQ Index Pollutant
Not available.

Snow Depth

Station Depth Elevation

Earthquake Activity

City Distance Mag. Time & Date
Minimum magnitude displayed is 2.5.

Coastal Water Temperatures

Place Temperature

Stations

Nearby Weather Stations

Station Location Temp. Windchill Dew Point Humidity Wind Precip. Elev Updated Type